Time;durP1;ratioP1;P1;durP2;ratioP2;P2;SDS_P1;SDS_P2;PMS_P1;PMS_P2;Temp;Humidity;BMP_temperature;BMP_pressure;BME280_temperature;BME280_humidity;BME280_pressure;Samples;Min_cycle;Max_cycle;Signal;HPM_P1;HPM_P2
2022/04/01 00:01:53;;;;;;;6.35;3.80;;;;;;;;;;5013702;28;20464;-74
2022/04/01 00:04:18;;;;;;;5.50;3.72;;;;;;;;;;5012340;28;20467;-75
2022/04/01 00:06:43;;;;;;;6.80;4.30;;;;;;;;;;5013944;28;20014;-74
2022/04/01 00:09:08;;;;;;;5.70;3.90;;;;;;;;;;5013386;28;20014;-75
2022/04/01 00:11:34;;;;;;;5.25;3.97;;;;;;;;;;5013496;28;20025;-74
2022/04/01 00:13:59;;;;;;;5.57;4.50;;;;;;;;;;5011038;28;20057;-74
2022/04/01 00:16:24;;;;;;;6.10;4.57;;;;;;;;;;5010462;28;20026;-74
2022/04/01 00:18:50;;;;;;;5.55;4.20;;;;;;;;;;5011984;28;20560;-75
2022/04/01 00:21:15;;;;;;;7.20;4.27;;;;;;;;;;5011339;28;20022;-75
2022/04/01 00:23:40;;;;;;;5.63;4.47;;;;;;;;;;5016163;28;20276;-75
2022/04/01 00:26:05;;;;;;;5.22;4.10;;;;;;;;;;5015236;28;20494;-72
2022/04/01 00:28:31;;;;;;;7.28;4.45;;;;;;;;;;5012974;28;20376;-73
2022/04/01 00:30:56;;;;;;;5.47;3.90;;;;;;;;;;5012538;28;20109;-74
2022/04/01 00:33:21;;;;;;;5.15;4.05;;;;;;;;;;5012633;28;20025;-74
2022/04/01 00:35:46;;;;;;;6.68;4.50;;;;;;;;;;5012855;28;20018;-75
2022/04/01 00:38:12;;;;;;;7.47;4.90;;;;;;;;;;5012751;28;20437;-74
2022/04/01 00:40:39;;;;;;;9.70;5.22;;;;;;;;;;5013226;28;20113;-75
2022/04/01 00:43:04;;;;;;;6.15;5.22;;;;;;;;;;5012749;28;20079;-74
2022/04/01 00:45:29;;;;;;;10.88;5.43;;;;;;;;;;5012567;28;20109;-74
2022/04/01 00:48:01;;;;;;;6.65;5.60;;;;;;;;;;5012684;28;20025;-74
2022/04/01 00:50:26;;;;;;;8.50;5.60;;;;;;;;;;5012609;28;20029;-74
2022/04/01 00:52:53;;;;;;;10.45;5.70;;;;;;;;;;5012319;28;20380;-74
2022/04/01 00:55:18;;;;;;;8.57;5.95;;;;;;;;;;5012543;28;20025;-74
2022/04/01 00:57:43;;;;;;;7.72;6.20;;;;;;;;;;5012363;28;20040;-74
2022/04/01 01:00:12;;;;;;;7.68;6.25;;;;;;;;;;5012530;28;20105;-74
2022/04/01 01:02:39;;;;;;;10.05;6.65;;;;;;;;;;5013105;28;20380;-74
2022/04/01 01:05:04;;;;;;;9.27;6.38;;;;;;;;;;5010941;28;20018;-74
2022/04/01 01:07:30;;;;;;;10.45;6.40;;;;;;;;;;5012319;28;20033;-74
2022/04/01 01:09:55;;;;;;;7.85;6.60;;;;;;;;;;5012426;28;20049;-75
2022/04/01 01:12:21;;;;;;;8.02;6.53;;;;;;;;;;5010919;28;20022;-74
2022/04/01 01:14:46;;;;;;;10.15;7.38;;;;;;;;;;5012180;28;20100;-74
2022/04/01 01:17:12;;;;;;;11.10;7.88;;;;;;;;;;5012248;28;20029;-74
2022/04/01 01:19:38;;;;;;;10.77;8.90;;;;;;;;;;5012061;28;20107;-73
2022/04/01 01:22:04;;;;;;;11.80;9.43;;;;;;;;;;5011878;28;20026;-74
2022/04/01 01:24:36;;;;;;;16.40;12.23;;;;;;;;;;5011480;28;20033;-74
2022/04/01 01:27:02;;;;;;;18.13;12.25;;;;;;;;;;5011638;28;20029;-74
2022/04/01 01:29:31;;;;;;;17.55;12.45;;;;;;;;;;5011836;28;20451;-74
2022/04/01 01:31:57;;;;;;;17.85;12.50;;;;;;;;;;5011864;28;20057;-74
2022/04/01 01:34:23;;;;;;;16.42;12.52;;;;;;;;;;5011749;28;20040;-75
2022/04/01 01:36:48;;;;;;;19.50;13.15;;;;;;;;;;5011642;28;20033;-75
2022/04/01 01:39:14;;;;;;;20.38;12.60;;;;;;;;;;5011716;28;20026;-74
2022/04/01 01:41:40;;;;;;;17.88;12.73;;;;;;;;;;5012133;28;20041;-74
2022/04/01 01:44:05;;;;;;;16.63;12.10;;;;;;;;;;5011557;28;20030;-74
2022/04/01 01:46:31;;;;;;;20.25;13.50;;;;;;;;;;5011699;28;20045;-75
2022/04/01 01:48:57;;;;;;;19.38;13.30;;;;;;;;;;5011606;28;20026;-74
2022/04/01 01:56:50;;;;;;;21.00;14.38;;;;;;;;;;5013034;28;20029;-80
2022/04/01 01:59:16;;;;;;;20.75;13.63;;;;;;;;;;5011454;28;20475;-74
2022/04/01 02:01:42;;;;;;;21.23;13.98;;;;;;;;;;5009995;28;20029;-75
2022/04/01 02:04:08;;;;;;;26.30;15.52;;;;;;;;;;5011253;28;20041;-74
2022/04/01 02:06:33;;;;;;;23.90;15.55;;;;;;;;;;5009843;28;20380;-74
2022/04/01 02:08:59;;;;;;;19.40;13.20;;;;;;;;;;5011016;28;20113;-74
2022/04/01 02:11:24;;;;;;;22.00;14.90;;;;;;;;;;5011783;28;20049;-74
2022/04/01 02:13:50;;;;;;;19.60;13.68;;;;;;;;;;5011290;28;20053;-74
2022/04/01 02:16:16;;;;;;;22.38;14.63;;;;;;;;;;5008904;28;20030;-74
2022/04/01 02:18:41;;;;;;;20.98;14.43;;;;;;;;;;5008935;28;20041;-74
2022/04/01 02:21:15;;;;;;;20.60;13.25;;;;;;;;;;5009957;28;20418;-74
2022/04/01 02:23:42;;;;;;;22.48;14.70;;;;;;;;;;5011193;28;20030;-74
2022/04/01 02:26:07;;;;;;;22.00;14.68;;;;;;;;;;5010965;28;20124;-77
2022/04/01 02:28:33;;;;;;;20.80;15.10;;;;;;;;;;5010875;28;20475;-74
2022/04/01 02:30:59;;;;;;;25.10;15.65;;;;;;;;;;5011243;28;20037;-74
2022/04/01 02:33:24;;;;;;;21.20;15.00;;;;;;;;;;5012178;28;20017;-75
2022/04/01 02:35:50;;;;;;;21.15;14.52;;;;;;;;;;5012785;28;20049;-75
2022/04/01 02:38:15;;;;;;;20.83;14.05;;;;;;;;;;5010924;28;20042;-75
2022/04/01 02:40:41;;;;;;;16.08;10.80;;;;;;;;;;5009926;28;20028;-72
2022/04/01 02:43:06;;;;;;;13.70;9.23;;;;;;;;;;5010944;28;20068;-73
2022/04/01 02:45:31;;;;;;;15.20;9.40;;;;;;;;;;5010562;28;20519;-74
2022/04/01 02:47:56;;;;;;;13.95;9.05;;;;;;;;;;5010590;28;20820;-74
2022/04/01 02:50:21;;;;;;;13.43;8.55;;;;;;;;;;5011050;28;20014;-75
2022/04/01 02:52:47;;;;;;;24.75;13.02;;;;;;;;;;5012141;28;20084;-75
2022/04/01 02:55:12;;;;;;;23.63;13.27;;;;;;;;;;5011221;28;20025;-75
2022/04/01 02:57:38;;;;;;;19.25;10.75;;;;;;;;;;5010842;28;20072;-74
2022/04/01 03:00:09;;;;;;;26.52;13.73;;;;;;;;;;5010729;28;20079;-77
2022/04/01 03:02:34;;;;;;;16.80;9.98;;;;;;;;;;5010730;28;20410;-74
2022/04/01 03:04:59;;;;;;;17.30;10.43;;;;;;;;;;5010527;28;20156;-74
2022/04/01 03:07:25;;;;;;;16.23;8.98;;;;;;;;;;5010659;28;20030;-74
2022/04/01 03:09:50;;;;;;;10.68;6.63;;;;;;;;;;5010920;28;20071;-75
2022/04/01 03:12:16;;;;;;;9.82;5.85;;;;;;;;;;5010904;28;20026;-76
2022/04/01 03:14:41;;;;;;;10.10;5.30;;;;;;;;;;5009401;28;20068;-75
2022/04/01 03:17:08;;;;;;;8.80;5.70;;;;;;;;;;4999471;28;20463;-75
2022/04/01 03:19:35;;;;;;;10.82;5.22;;;;;;;;;;5007328;28;20029;-74
2022/04/01 03:22:00;;;;;;;6.63;5.07;;;;;;;;;;5006573;28;20452;-75
2022/04/01 03:24:26;;;;;;;7.57;5.47;;;;;;;;;;4990798;28;20045;-74
2022/04/01 03:26:51;;;;;;;9.57;5.63;;;;;;;;;;4990968;28;20455;-75
2022/04/01 03:29:16;;;;;;;9.55;6.50;;;;;;;;;;4990670;28;20118;-75
2022/04/01 03:31:42;;;;;;;10.75;6.75;;;;;;;;;;4989076;28;20471;-75
2022/04/01 03:34:08;;;;;;;10.25;6.65;;;;;;;;;;5005488;28;20025;-76
2022/04/01 03:36:36;;;;;;;12.27;7.68;;;;;;;;;;5005485;28;20049;-75
2022/04/01 03:39:02;;;;;;;10.50;7.30;;;;;;;;;;4990587;28;20038;-73
2022/04/01 03:41:29;;;;;;;10.73;7.38;;;;;;;;;;4990978;28;20018;-75
2022/04/01 03:43:55;;;;;;;12.18;7.57;;;;;;;;;;4990534;28;20510;-76
2022/04/01 03:46:22;;;;;;;11.70;6.78;;;;;;;;;;4991644;28;20046;-75
2022/04/01 03:48:47;;;;;;;8.65;6.30;;;;;;;;;;4994366;28;20011;-75
2022/04/01 03:51:19;;;;;;;7.38;5.63;;;;;;;;;;4994003;28;20022;-75
2022/04/01 03:54:05;;;;;;;9.80;5.07;;;;;;;;;;5010857;28;20029;-74
2022/04/01 03:56:32;;;;;;;7.55;5.20;;;;;;;;;;5011038;28;20095;-76
2022/04/01 03:59:02;;;;;;;14.80;5.40;;;;;;;;;;5013191;28;20080;-76
2022/04/01 04:01:27;;;;;;;10.48;5.75;;;;;;;;;;5012829;28;20026;-76
2022/04/01 04:03:53;;;;;;;9.52;5.97;;;;;;;;;;5013648;28;20010;-77
2022/04/01 04:06:19;;;;;;;7.53;5.78;;;;;;;;;;5013284;28;20013;-75
2022/04/01 04:08:45;;;;;;;6.97;5.68;;;;;;;;;;5013289;28;20510;-75
2022/04/01 04:11:11;;;;;;;13.43;7.72;;;;;;;;;;5004638;28;20153;-75
2022/04/01 04:13:37;;;;;;;11.32;8.25;;;;;;;;;;4993539;28;20523;-75
2022/04/01 04:16:05;;;;;;;12.52;7.63;;;;;;;;;;5001866;28;20041;-75
2022/04/01 04:18:36;;;;;;;11.27;7.88;;;;;;;;;;5012101;28;20050;-74
2022/04/01 04:21:10;;;;;;;13.27;8.07;;;;;;;;;;5012864;28;20105;-76
2022/04/01 04:23:40;;;;;;;11.02;7.45;;;;;;;;;;5011593;28;20403;-75
2022/04/01 04:26:11;;;;;;;10.10;7.63;;;;;;;;;;5012583;28;20080;-75
2022/04/01 04:28:38;;;;;;;13.32;9.13;;;;;;;;;;5012544;28;20018;-75
2022/04/01 04:31:05;;;;;;;17.85;11.43;;;;;;;;;;5011278;28;20099;-75
2022/04/01 04:33:31;;;;;;;13.10;11.43;;;;;;;;;;5011960;28;20022;-75
2022/04/01 04:35:59;;;;;;;14.40;11.05;;;;;;;;;;5011525;28;20033;-75
2022/04/01 04:38:26;;;;;;;15.15;11.77;;;;;;;;;;5012632;28;20034;-74
2022/04/01 04:40:52;;;;;;;13.45;10.13;;;;;;;;;;5012038;28;20491;-75
2022/04/01 04:43:21;;;;;;;14.07;10.23;;;;;;;;;;5013201;28;20052;-75
2022/04/01 04:45:49;;;;;;;11.90;8.75;;;;;;;;;;5014981;28;20787;-75
2022/04/01 04:48:15;;;;;;;13.07;8.60;;;;;;;;;;5014596;28;20018;-76
2022/04/01 04:50:44;;;;;;;13.98;8.35;;;;;;;;;;5014329;28;20021;-76
2022/04/01 04:53:12;;;;;;;10.88;8.50;;;;;;;;;;5012378;28;20053;-75
2022/04/01 04:55:38;;;;;;;12.27;9.00;;;;;;;;;;5002653;28;20032;-74
2022/04/01 04:58:04;;;;;;;20.85;9.32;;;;;;;;;;4989270;28;20034;-73
2022/04/01 05:00:29;;;;;;;14.70;8.98;;;;;;;;;;5014910;28;20017;-74
2022/04/01 05:03:12;;;;;;;17.80;11.35;;;;;;;;;;5021508;28;20018;-73
2022/04/01 05:05:45;;;;;;;25.65;16.48;;;;;;;;;;5009453;28;20036;-72
2022/04/01 05:08:30;;;;;;;29.30;20.85;;;;;;;;;;5021885;28;20065;-72
2022/04/01 05:11:06;;;;;;;28.33;20.37;;;;;;;;;;5016573;28;20397;-72
2022/04/01 05:13:49;;;;;;;32.00;22.67;;;;;;;;;;5012567;28;20172;-71
2022/04/01 05:16:21;;;;;;;31.10;22.65;;;;;;;;;;5010722;28;20042;-75
2022/04/01 05:18:50;;;;;;;26.83;19.98;;;;;;;;;;5008526;28;20558;-72
2022/04/01 05:21:18;;;;;;;25.10;17.77;;;;;;;;;;5007899;28;20030;-75
2022/04/01 05:23:59;;;;;;;25.90;16.27;;;;;;;;;;5009591;28;20022;-75
2022/04/01 05:26:38;;;;;;;15.18;10.50;;;;;;;;;;5011014;28;20029;-76
2022/04/01 05:29:03;;;;;;;14.75;10.63;;;;;;;;;;5015948;28;20021;-75
2022/04/01 05:31:36;;;;;;;14.55;10.32;;;;;;;;;;5015995;28;20024;-75
2022/04/01 05:34:08;;;;;;;15.63;11.50;;;;;;;;;;5009714;28;20022;-74
2022/04/01 05:36:34;;;;;;;20.27;14.25;;;;;;;;;;5011837;28;20030;-76
2022/04/01 05:38:59;;;;;;;21.10;11.13;;;;;;;;;;5013104;28;20518;-75
2022/04/01 05:41:25;;;;;;;14.98;10.65;;;;;;;;;;5003923;28;20101;-77
2022/04/01 05:43:50;;;;;;;16.90;11.70;;;;;;;;;;4993679;28;20023;-75
2022/04/01 05:46:16;;;;;;;17.83;11.35;;;;;;;;;;4993789;28;20073;-75
2022/04/01 05:48:42;;;;;;;18.67;10.48;;;;;;;;;;4992569;28;20468;-76
2022/04/01 05:51:10;;;;;;;14.55;10.32;;;;;;;;;;4991686;28;20037;-76
2022/04/01 05:53:36;;;;;;;15.88;10.48;;;;;;;;;;4990302;28;20426;-74
2022/04/01 05:56:03;;;;;;;12.73;9.60;;;;;;;;;;4991701;28;20022;-76
2022/04/01 05:58:29;;;;;;;17.83;9.90;;;;;;;;;;4991553;28;20432;-76
2022/04/01 06:01:12;;;;;;;15.63;8.73;;;;;;;;;;4991639;28;20022;-75
2022/04/01 06:03:56;;;;;;;15.15;9.02;;;;;;;;;;4990337;28;20026;-75
2022/04/01 06:06:31;;;;;;;15.35;10.02;;;;;;;;;;4991132;28;20084;-75
2022/04/01 06:09:14;;;;;;;13.85;8.45;;;;;;;;;;4991495;28;20431;-75
2022/04/01 06:11:44;;;;;;;15.05;8.65;;;;;;;;;;4990040;28;20026;-76
2022/04/01 06:14:19;;;;;;;12.57;9.20;;;;;;;;;;4991558;28;20097;-76
2022/04/01 06:16:47;;;;;;;15.07;9.23;;;;;;;;;;4990109;28;20117;-76
2022/04/01 06:19:29;;;;;;;16.25;9.75;;;;;;;;;;4991441;28;20045;-75
2022/04/01 06:22:01;;;;;;;15.00;10.35;;;;;;;;;;4990137;28;20036;-75
2022/04/01 06:24:38;;;;;;;17.42;10.38;;;;;;;;;;4989991;28;20029;-76
2022/04/01 06:27:05;;;;;;;14.48;10.13;;;;;;;;;;4991531;28;20853;-75
2022/04/01 06:29:35;;;;;;;16.67;10.43;;;;;;;;;;4996004;28;20017;-76
2022/04/01 06:32:05;;;;;;;13.50;11.32;;;;;;;;;;5012595;28;20022;-77
2022/04/01 06:34:51;;;;;;;15.60;10.70;;;;;;;;;;5011424;28;20014;-75
2022/04/01 06:37:16;;;;;;;;;;;;;;;;;;4980420;28;20038;-75
2022/04/01 06:39:56;;;;;;;12.20;10.30;;;;;;;;;;5010865;28;19909;-75
2022/04/01 06:42:24;;;;;;;16.38;10.20;;;;;;;;;;5010060;28;20029;-77
2022/04/01 06:44:49;;;;;;;16.85;11.00;;;;;;;;;;5010787;28;20030;-76
2022/04/01 06:47:15;;;;;;;13.60;10.30;;;;;;;;;;5000465;28;20081;-77
2022/04/01 06:49:40;;;;;;;13.98;9.85;;;;;;;;;;4990318;28;20019;-76
2022/04/01 06:52:07;;;;;;;15.55;10.70;;;;;;;;;;4990476;28;20036;-75
2022/04/01 06:54:32;;;;;;;18.45;12.52;;;;;;;;;;5001578;28;20014;-75
2022/04/01 06:56:57;;;;;;;16.77;11.98;;;;;;;;;;5015567;28;20022;-78
2022/04/01 06:59:22;;;;;;;14.60;10.93;;;;;;;;;;4998419;28;20030;-75
2022/04/01 07:01:48;;;;;;;19.90;12.82;;;;;;;;;;4990931;28;20321;-76
2022/04/01 07:04:14;;;;;;;17.17;11.50;;;;;;;;;;4991012;28;20037;-75
2022/04/01 07:06:39;;;;;;;15.55;11.27;;;;;;;;;;4991139;28;20026;-76
2022/04/01 07:09:05;;;;;;;15.18;10.85;;;;;;;;;;4990891;28;20030;-76
2022/04/01 07:11:30;;;;;;;12.25;10.18;;;;;;;;;;5005879;28;20022;-76
2022/04/01 07:13:55;;;;;;;16.00;10.68;;;;;;;;;;4992711;28;20057;-75
2022/04/01 07:16:21;;;;;;;13.63;8.93;;;;;;;;;;5010392;28;20029;-76
2022/04/01 07:18:46;;;;;;;12.40;9.80;;;;;;;;;;5010186;28;20041;-74
2022/04/01 07:21:11;;;;;;;14.77;10.20;;;;;;;;;;5010305;28;20022;-74
2022/04/01 07:23:37;;;;;;;14.13;9.80;;;;;;;;;;5013008;28;20056;-75
2022/04/01 07:26:02;;;;;;;11.60;8.77;;;;;;;;;;5014280;28;20182;-75
2022/04/01 07:28:28;;;;;;;14.80;10.15;;;;;;;;;;5013427;28;20053;-75
2022/04/01 07:30:54;;;;;;;13.02;9.88;;;;;;;;;;5012702;28;20022;-76
2022/04/01 07:33:19;;;;;;;13.13;9.98;;;;;;;;;;5014108;28;20080;-76
2022/04/01 07:35:47;;;;;;;15.35;10.00;;;;;;;;;;5014064;28;20022;-75
2022/04/01 07:38:12;;;;;;;14.32;10.02;;;;;;;;;;5014044;28;20037;-76
2022/04/01 07:40:37;;;;;;;13.73;10.02;;;;;;;;;;5014416;28;20022;-75
2022/04/01 07:43:03;;;;;;;13.38;9.52;;;;;;;;;;5013152;28;20036;-74
2022/04/01 07:45:29;;;;;;;10.85;8.57;;;;;;;;;;5012902;28;20026;-76
2022/04/01 07:47:54;;;;;;;12.20;9.02;;;;;;;;;;5013029;28;20758;-76
2022/04/01 07:50:20;;;;;;;11.40;8.85;;;;;;;;;;5013008;28;20017;-75
2022/04/01 07:52:46;;;;;;;13.02;10.02;;;;;;;;;;4995738;28;20046;-76
2022/04/01 07:55:14;;;;;;;11.85;9.50;;;;;;;;;;5010882;28;20152;-77
2022/04/01 07:57:39;;;;;;;11.40;9.05;;;;;;;;;;5011895;28;20033;-78
2022/04/01 08:00:06;;;;;;;11.13;8.45;;;;;;;;;;5013086;28;20026;-75
2022/04/01 08:02:31;;;;;;;11.45;8.73;;;;;;;;;;5012022;28;20045;-77
2022/04/01 08:04:57;;;;;;;14.32;9.77;;;;;;;;;;5010607;28;20484;-76
2022/04/01 08:07:22;;;;;;;14.27;9.67;;;;;;;;;;5012876;28;20018;-75
2022/04/01 08:09:49;;;;;;;13.02;9.70;;;;;;;;;;5006562;28;20303;-75
2022/04/01 08:12:15;;;;;;;14.57;9.60;;;;;;;;;;4993919;28;20015;-74
2022/04/01 08:14:41;;;;;;;12.35;8.50;;;;;;;;;;4993499;28;20494;-74
2022/04/01 08:17:06;;;;;;;10.90;8.85;;;;;;;;;;4993460;28;20017;-75
2022/04/01 08:19:32;;;;;;;12.63;9.65;;;;;;;;;;5001379;28;20042;-74
2022/04/01 08:21:58;;;;;;;10.15;8.05;;;;;;;;;;5012006;28;20391;-74
2022/04/01 08:24:24;;;;;;;12.85;8.70;;;;;;;;;;5010760;28;20022;-74
2022/04/01 08:26:50;;;;;;;10.23;8.00;;;;;;;;;;5010876;28;20029;-74
2022/04/01 08:29:15;;;;;;;11.52;8.77;;;;;;;;;;5011522;28;20022;-76
2022/04/01 08:31:40;;;;;;;11.50;9.35;;;;;;;;;;5012615;28;20013;-77
2022/04/01 08:34:05;;;;;;;11.68;9.00;;;;;;;;;;5011217;28;20018;-77
2022/04/01 08:36:31;;;;;;;16.27;11.35;;;;;;;;;;5010460;28;20033;-77
2022/04/01 08:38:56;;;;;;;27.50;21.23;;;;;;;;;;5010093;28;20033;-75
2022/04/01 08:41:22;;;;;;;29.52;23.13;;;;;;;;;;5012107;28;20478;-75
2022/04/01 08:43:48;;;;;;;26.10;20.42;;;;;;;;;;5012354;28;20030;-77
2022/04/01 08:46:14;;;;;;;32.63;23.52;;;;;;;;;;5012161;28;20057;-75
2022/04/01 08:48:41;;;;;;;37.05;26.50;;;;;;;;;;5012077;28;20434;-75
2022/04/01 08:51:06;;;;;;;32.10;26.13;;;;;;;;;;5012570;28;20075;-75
2022/04/01 08:53:37;;;;;;;38.63;29.65;;;;;;;;;;5012102;28;20108;-76
2022/04/01 08:56:03;;;;;;;33.25;25.70;;;;;;;;;;5011798;28;20022;-75
2022/04/01 08:58:28;;;;;;;30.77;23.42;;;;;;;;;;5011606;28;20041;-76
2022/04/01 09:00:53;;;;;;;27.55;21.85;;;;;;;;;;5012052;28;20026;-78
2022/04/01 09:03:21;;;;;;;28.58;21.63;;;;;;;;;;5010875;28;20053;-76
2022/04/01 09:05:56;;;;;;;27.27;22.40;;;;;;;;;;5013811;28;20083;-76
2022/04/01 09:08:37;;;;;;;26.83;22.88;;;;;;;;;;5017495;28;20025;-79
2022/04/01 09:11:07;;;;;;;27.60;21.98;;;;;;;;;;5012356;28;20026;-75
2022/04/01 09:13:33;;;;;;;28.02;23.00;;;;;;;;;;5010330;28;20033;-76
2022/04/01 09:15:59;;;;;;;26.90;21.95;;;;;;;;;;5011542;28;20487;-75
2022/04/01 09:18:31;;;;;;;28.30;23.38;;;;;;;;;;5011998;28;20088;-76
2022/04/01 09:20:57;;;;;;;24.08;19.02;;;;;;;;;;5010091;28;20061;-75
2022/04/01 09:23:23;;;;;;;23.90;19.13;;;;;;;;;;5011422;28;20092;-78
2022/04/01 09:25:48;;;;;;;23.23;19.73;;;;;;;;;;5011327;28;20263;-77
2022/04/01 09:28:22;;;;;;;24.30;18.70;;;;;;;;;;5010847;28;20026;-77
2022/04/01 09:30:55;;;;;;;22.58;18.40;;;;;;;;;;5011230;28;20034;-76
2022/04/01 09:33:20;;;;;;;17.42;14.75;;;;;;;;;;5010976;28;20526;-74
2022/04/01 09:35:46;;;;;;;20.30;14.30;;;;;;;;;;5009499;28;20029;-78
2022/04/01 09:38:12;;;;;;;18.05;14.27;;;;;;;;;;5010957;28;20034;-76
2022/04/01 09:40:37;;;;;;;18.75;13.13;;;;;;;;;;5011082;28;20022;-76
2022/04/01 09:43:03;;;;;;;18.75;14.77;;;;;;;;;;5011906;28;20415;-77
2022/04/01 09:45:35;;;;;;;16.17;13.13;;;;;;;;;;5011148;28;20030;-77
2022/04/01 09:48:13;;;;;;;18.52;12.02;;;;;;;;;;5010603;28;20468;-77
2022/04/01 09:50:39;;;;;;;14.73;11.35;;;;;;;;;;5011062;28;20068;-78
2022/04/01 09:53:21;;;;;;;14.50;11.85;;;;;;;;;;5009440;28;20022;-75
2022/04/01 09:55:48;;;;;;;14.13;12.27;;;;;;;;;;5010973;28;20022;-77
2022/04/01 09:58:15;;;;;;;14.25;11.10;;;;;;;;;;5011247;28;20044;-76
2022/04/01 10:00:40;;;;;;;11.75;9.98;;;;;;;;;;5011677;28;20018;-75
2022/04/01 10:03:06;;;;;;;13.13;8.20;;;;;;;;;;5011577;28;20529;-77
2022/04/01 10:05:33;;;;;;;11.07;8.38;;;;;;;;;;5013811;28;20045;-79
2022/04/01 10:08:00;;;;;;;15.05;10.00;;;;;;;;;;5014444;28;20065;-77
2022/04/01 10:10:26;;;;;;;11.02;8.95;;;;;;;;;;5011347;28;20022;-76
2022/04/01 10:12:53;;;;;;;10.50;7.90;;;;;;;;;;5012164;28;20712;-76
2022/04/01 10:15:19;;;;;;;11.60;8.30;;;;;;;;;;5010964;28;20050;-76
2022/04/01 10:17:45;;;;;;;8.55;7.35;;;;;;;;;;5010899;28;20044;-76
2022/04/01 10:20:12;;;;;;;16.13;9.50;;;;;;;;;;5010746;28;20021;-77
2022/04/01 10:22:40;;;;;;;11.23;8.55;;;;;;;;;;5010935;28;20014;-76
2022/04/01 10:25:15;;;;;;;17.38;10.40;;;;;;;;;;5011135;28;20022;-76
2022/04/01 10:27:41;;;;;;;;;;;;;;;;;;5011540;28;20445;-76
2022/04/01 10:30:06;;;;;;;;;;;;;;;;;;5010521;28;19909;-77
2022/04/01 10:32:34;;;;;;;12.13;8.73;;;;;;;;;;5010219;28;19905;-74
2022/04/01 10:35:00;;;;;;;12.35;9.02;;;;;;;;;;5010866;28;20021;-76
2022/04/01 10:37:26;;;;;;;11.38;8.90;;;;;;;;;;5009298;28;20018;-76
2022/04/01 10:39:55;;;;;;;14.63;9.50;;;;;;;;;;5010400;28;20025;-76
2022/04/01 10:42:30;;;;;;;13.57;9.68;;;;;;;;;;5011511;28;20442;-76
2022/04/01 10:44:57;;;;;;;11.90;9.63;;;;;;;;;;5008944;28;20383;-77
2022/04/01 10:51:36;;;;;;;12.50;10.15;;;;;;;;;;5010708;28;20026;-76
2022/04/01 10:53:29;;;;;;;18.52;11.23;;;;;;;;;;5010516;28;20033;-77
2022/04/01 10:56:14;;;;;;;14.40;10.13;;;;;;;;;;5010474;28;20029;-77
2022/04/01 10:58:59;;;;;;;12.68;10.13;;;;;;;;;;5014147;28;20041;-76
2022/04/01 11:01:25;;;;;;;10.93;9.83;;;;;;;;;;5013162;28;20065;-75
2022/04/01 11:03:58;;;;;;;12.40;10.93;;;;;;;;;;5013084;28;20041;-74
2022/04/01 11:06:27;;;;;;;15.07;11.50;;;;;;;;;;5014060;28;20125;-77
2022/04/01 11:08:53;;;;;;;12.52;10.60;;;;;;;;;;5015238;28;20018;-74
2022/04/01 11:11:18;;;;;;;15.38;11.48;;;;;;;;;;5009120;28;20498;-75
2022/04/01 11:14:00;;;;;;;11.77;9.45;;;;;;;;;;5014789;28;20057;-76
2022/04/01 11:16:25;;;;;;;11.82;9.70;;;;;;;;;;5015672;28;20026;-75
2022/04/01 11:19:09;;;;;;;12.30;10.10;;;;;;;;;;5018781;28;20053;-79
2022/04/01 11:21:35;;;;;;;13.43;9.50;;;;;;;;;;4998201;28;20030;-74
2022/04/01 11:24:03;;;;;;;13.20;8.82;;;;;;;;;;4994290;28;20026;-73
2022/04/01 11:26:41;;;;;;;11.43;9.77;;;;;;;;;;5003632;28;20014;-74
2022/04/01 11:29:16;;;;;;;10.45;8.88;;;;;;;;;;5013404;28;20025;-74
2022/04/01 11:31:42;;;;;;;10.90;8.25;;;;;;;;;;5013256;28;20463;-73
2022/04/01 11:34:07;;;;;;;15.23;9.75;;;;;;;;;;5013536;28;20025;-76
2022/04/01 11:36:32;;;;;;;10.00;8.23;;;;;;;;;;5013813;28;20092;-74
2022/04/01 11:38:59;;;;;;;10.88;8.77;;;;;;;;;;4999730;28;20034;-75
2022/04/01 11:41:24;;;;;;;12.07;8.88;;;;;;;;;;4993823;28;20380;-75
2022/04/01 11:43:50;;;;;;;10.63;8.30;;;;;;;;;;4993983;28;20022;-75
2022/04/01 11:46:15;;;;;;;10.50;8.82;;;;;;;;;;4993948;28;20025;-74
2022/04/01 11:48:42;;;;;;;13.93;9.32;;;;;;;;;;4993713;28;20096;-74
2022/04/01 11:51:10;;;;;;;14.40;9.60;;;;;;;;;;4992197;28;20022;-75
2022/04/01 11:53:36;;;;;;;10.23;8.85;;;;;;;;;;4993677;28;20022;-75
2022/04/01 11:56:02;;;;;;;12.25;8.55;;;;;;;;;;4993361;28;20061;-73
2022/04/01 11:58:33;;;;;;;11.60;8.60;;;;;;;;;;4993049;28;20436;-73
2022/04/01 12:00:58;;;;;;;15.07;9.40;;;;;;;;;;4993309;28;20092;-74
2022/04/01 12:03:24;;;;;;;10.57;8.82;;;;;;;;;;4994941;28;20078;-74
2022/04/01 12:05:53;;;;;;;11.85;8.50;;;;;;;;;;4993503;28;20045;-73
2022/04/01 12:11:04;;;;;;;8.82;7.53;;;;;;;;;;5012563;28;20141;-73
2022/04/01 12:13:30;;;;;;;13.57;7.90;;;;;;;;;;5013828;28;20029;-73
2022/04/01 12:15:57;;;;;;;9.25;7.70;;;;;;;;;;5011837;28;20034;-73
2022/04/01 12:18:26;;;;;;;10.52;8.02;;;;;;;;;;5011017;28;20041;-73
2022/04/01 12:21:01;;;;;;;11.20;7.85;;;;;;;;;;5011662;28;20028;-73
2022/04/01 12:23:32;;;;;;;10.38;8.45;;;;;;;;;;5011296;28;20021;-72
2022/04/01 12:25:57;;;;;;;18.35;10.38;;;;;;;;;;5012969;28;20123;-73
2022/04/01 12:28:24;;;;;;;11.82;8.88;;;;;;;;;;5012299;28;20470;-73
2022/04/01 12:30:50;;;;;;;13.82;9.55;;;;;;;;;;5011635;28;20064;-73
2022/04/01 12:33:16;;;;;;;20.85;14.57;;;;;;;;;;5014213;28;20010;-74
2022/04/01 12:35:49;;;;;;;15.65;11.15;;;;;;;;;;5013233;28;20018;-74
2022/04/01 12:38:15;;;;;;;15.40;9.73;;;;;;;;;;5012616;28;20103;-75
2022/04/01 12:40:43;;;;;;;15.65;9.38;;;;;;;;;;5012852;28;20536;-76
2022/04/01 12:43:08;;;;;;;10.68;7.20;;;;;;;;;;5011946;28;20026;-75
2022/04/01 12:45:33;;;;;;;9.48;7.90;;;;;;;;;;5012728;28;20072;-76
2022/04/01 12:47:59;;;;;;;9.25;6.50;;;;;;;;;;5011183;28;20030;-75
2022/04/01 12:50:31;;;;;;;6.60;5.05;;;;;;;;;;5012393;28;20096;-76
2022/04/01 12:53:12;;;;;;;6.47;4.43;;;;;;;;;;5011196;28;20061;-76
2022/04/01 12:55:38;;;;;;;6.82;3.30;;;;;;;;;;5011349;28;20022;-75
2022/04/01 12:58:06;;;;;;;7.53;3.67;;;;;;;;;;5014113;28;20052;-76
2022/04/01 13:00:32;;;;;;;6.68;4.03;;;;;;;;;;5012573;28;20025;-74
2022/04/01 13:03:01;;;;;;;5.53;4.15;;;;;;;;;;5012235;28;20046;-74
2022/04/01 13:05:26;;;;;;;9.68;7.13;;;;;;;;;;4992877;28;20076;-75
2022/04/01 13:07:53;;;;;;;7.30;5.53;;;;;;;;;;4991172;28;20456;-75
2022/04/01 13:10:20;;;;;;;7.97;5.35;;;;;;;;;;4992692;28;20559;-76
2022/04/01 13:12:47;;;;;;;6.28;4.30;;;;;;;;;;4993263;28;20034;-75
2022/04/01 13:15:15;;;;;;;7.68;4.80;;;;;;;;;;5006569;28;20503;-75
2022/04/01 13:17:43;;;;;;;8.10;5.38;;;;;;;;;;5011966;28;20072;-76
2022/04/01 13:20:10;;;;;;;9.35;5.43;;;;;;;;;;5011709;28;20033;-75
2022/04/01 13:22:35;;;;;;;7.82;5.35;;;;;;;;;;5012215;28;20455;-74
2022/04/01 13:25:01;;;;;;;8.13;5.70;;;;;;;;;;5012676;28;20101;-74
2022/04/01 13:27:27;;;;;;;8.48;5.03;;;;;;;;;;5012189;28;20022;-74
2022/04/01 13:29:54;;;;;;;8.10;5.45;;;;;;;;;;5016222;28;20048;-74
2022/04/01 13:32:19;;;;;;;7.22;5.43;;;;;;;;;;5014013;28;20021;-74
2022/04/01 13:34:44;;;;;;;8.32;5.90;;;;;;;;;;5014612;28;20025;-74
2022/04/01 13:37:11;;;;;;;8.18;6.10;;;;;;;;;;5013991;28;20160;-74
2022/04/01 13:39:36;;;;;;;9.20;5.15;;;;;;;;;;5011187;28;20029;-75
2022/04/01 13:42:02;;;;;;;8.45;6.07;;;;;;;;;;5012681;28;20476;-76
2022/04/01 13:44:28;;;;;;;6.93;5.55;;;;;;;;;;5012952;28;20037;-75
2022/04/01 13:46:54;;;;;;;9.75;7.50;;;;;;;;;;5012486;28;20018;-75
2022/04/01 13:49:19;;;;;;;8.38;5.65;;;;;;;;;;5011442;28;20468;-74
2022/04/01 13:51:45;;;;;;;8.52;5.85;;;;;;;;;;5011705;28;20056;-74
2022/04/01 13:54:10;;;;;;;11.02;5.72;;;;;;;;;;5014706;28;20021;-74
2022/04/01 13:56:36;;;;;;;8.48;6.13;;;;;;;;;;5012009;28;20447;-76
2022/04/01 13:59:02;;;;;;;10.57;6.28;;;;;;;;;;5014353;28;21042;-77
2022/04/01 14:01:27;;;;;;;7.93;5.88;;;;;;;;;;5011128;28;20034;-74
2022/04/01 14:03:53;;;;;;;7.78;5.90;;;;;;;;;;5015981;28;20576;-77
2022/04/01 14:06:19;;;;;;;7.72;5.65;;;;;;;;;;4998568;28;20045;-74
2022/04/01 14:08:44;;;;;;;9.25;5.32;;;;;;;;;;5000180;28;20080;-75
2022/04/01 14:11:09;;;;;;;7.40;4.80;;;;;;;;;;5004769;28;20022;-74
2022/04/01 14:13:35;;;;;;;7.93;5.50;;;;;;;;;;5001780;28;20557;-74
2022/04/01 14:16:01;;;;;;;6.43;5.50;;;;;;;;;;5008632;28;20026;-74
2022/04/01 14:18:27;;;;;;;7.40;5.32;;;;;;;;;;5016217;28;20048;-75
2022/04/01 14:20:57;;;;;;;8.68;5.30;;;;;;;;;;5006502;28;20105;-74
2022/04/01 14:23:23;;;;;;;7.85;5.93;;;;;;;;;;5002412;28;20015;-73
2022/04/01 14:25:49;;;;;;;7.70;6.10;;;;;;;;;;5003563;28;20479;-74
2022/04/01 14:28:14;;;;;;;8.25;5.90;;;;;;;;;;5005999;28;20113;-76
2022/04/01 14:30:39;;;;;;;8.75;5.85;;;;;;;;;;5012846;28;20061;-75
2022/04/01 14:33:05;;;;;;;8.05;5.78;;;;;;;;;;5007066;28;20028;-76
2022/04/01 14:35:31;;;;;;;9.10;6.28;;;;;;;;;;5017469;28;20037;-77
2022/04/01 14:37:57;;;;;;;10.88;6.90;;;;;;;;;;5001964;28;20034;-76
2022/04/01 14:40:22;;;;;;;9.35;7.32;;;;;;;;;;5007637;28;20025;-74
2022/04/01 14:42:48;;;;;;;8.68;6.38;;;;;;;;;;5007435;28;20076;-76